sensor_id;sensor_type;location;lat;lon;timestamp;temperature;humidity
6788;DHT22;3431;47.966;10.268;2022-11-04T00:00:13;9.00;99.90
6788;DHT22;3431;47.966;10.268;2022-11-04T00:00:35;9.00;99.90
6788;DHT22;3431;47.966;10.268;2022-11-04T00:01:02;9.00;99.90
6788;DHT22;3431;47.966;10.268;2022-11-04T00:01:24;9.00;99.90
6788;DHT22;3431;47.966;10.268;2022-11-04T00:01:47;9.00;99.90
6788;DHT22;3431;47.966;10.268;2022-11-04T00:02:09;9.00;99.90
6788;DHT22;3431;47.966;10.268;2022-11-04T00:02:31;9.00;99.90
6788;DHT22;3431;47.966;10.268;2022-11-04T00:02:53;9.00;99.90
6788;DHT22;3431;47.966;10.268;2022-11-04T00:03:15;9.00;99.90
6788;DHT22;3431;47.966;10.268;2022-11-04T00:03:36;9.00;99.90
6788;DHT22;3431;47.966;10.268;2022-11-04T00:03:58;9.00;99.90
6788;DHT22;3431;47.966;10.268;2022-11-04T00:04:21;9.00;99.90
6788;DHT22;3431;47.966;10.268;2022-11-04T00:04:44;9.00;99.90
6788;DHT22;3431;47.966;10.268;2022-11-04T00:05:06;9.00;99.90
6788;DHT22;3431;47.966;10.268;2022-11-04T00:05:28;9.00;99.90
6788;DHT22;3431;47.966;10.268;2022-11-04T00:05:49;9.00;99.90
6788;DHT22;3431;47.966;10.268;2022-11-04T00:06:12;9.00;99.90
6788;DHT22;3431;47.966;10.268;2022-11-04T00:06:34;9.00;99.90
6788;DHT22;3431;47.966;10.268;2022-11-04T00:06:56;9.00;99.90
6788;DHT22;3431;47.966;10.268;2022-11-04T00:07:19;8.90;99.90
6788;DHT22;3431;47.966;10.268;2022-11-04T00:07:58;8.90;99.90
6788;DHT22;3431;47.966;10.268;2022-11-04T00:08:39;8.90;99.90
6788;DHT22;3431;47.966;10.268;2022-11-04T00:09:00;8.90;99.90
6788;DHT22;3431;47.966;10.268;2022-11-04T00:09:23;8.90;99.90
6788;DHT22;3431;47.966;10.268;2022-11-04T00:09:46;8.60;99.90
6788;DHT22;3431;47.966;10.268;2022-11-04T00:10:08;8.90;99.90
6788;DHT22;3431;47.966;10.268;2022-11-04T00:10:29;8.90;99.90
6788;DHT22;3431;47.966;10.268;2022-11-04T00:11:06;8.90;99.90
6788;DHT22;3431;47.966;10.268;2022-11-04T00:11:46;8.90;99.90
6788;DHT22;3431;47.966;10.268;2022-11-04T00:12:26;8.90;99.90
6788;DHT22;3431;47.966;10.268;2022-11-04T00:12:51;8.90;99.90
6788;DHT22;3431;47.966;10.268;2022-11-04T00:13:13;8.90;99.90
6788;DHT22;3431;47.966;10.268;2022-11-04T00:13:34;8.90;99.90
6788;DHT22;3431;47.966;10.268;2022-11-04T00:13:57;8.90;99.90
6788;DHT22;3431;47.966;10.268;2022-11-04T00:14:20;8.90;99.90
6788;DHT22;3431;47.966;10.268;2022-11-04T00:14:42;8.90;99.90
6788;DHT22;3431;47.966;10.268;2022-11-04T00:15:05;8.90;99.90
6788;DHT22;3431;47.966;10.268;2022-11-04T00:15:42;8.80;99.90
6788;DHT22;3431;47.966;10.268;2022-11-04T00:16:22;8.80;99.90
6788;DHT22;3431;47.966;10.268;2022-11-04T00:17:02;8.80;99.90
6788;DHT22;3431;47.966;10.268;2022-11-04T00:17:39;8.80;99.90
6788;DHT22;3431;47.966;10.268;2022-11-04T00:18:01;8.80;99.90
6788;DHT22;3431;47.966;10.268;2022-11-04T00:18:22;8.80;99.90
6788;DHT22;3431;47.966;10.268;2022-11-04T00:18:44;8.70;99.90
6788;DHT22;3431;47.966;10.268;2022-11-04T00:19:05;8.70;99.90
6788;DHT22;3431;47.966;10.268;2022-11-04T00:19:28;8.70;99.90
6788;DHT22;3431;47.966;10.268;2022-11-04T00:20:10;8.70;99.90
6788;DHT22;3431;47.966;10.268;2022-11-04T00:20:50;8.70;99.90
6788;DHT22;3431;47.966;10.268;2022-11-04T00:21:30;8.70;99.90
6788;DHT22;3431;47.966;10.268;2022-11-04T00:22:10;8.60;99.90
6788;DHT22;3431;47.966;10.268;2022-11-04T00:22:50;8.60;99.90
6788;DHT22;3431;47.966;10.268;2022-11-04T00:23:30;8.60;99.90
6788;DHT22;3431;47.966;10.268;2022-11-04T00:24:11;8.60;99.90
6788;DHT22;3431;47.966;10.268;2022-11-04T00:24:51;8.50;99.90
6788;DHT22;3431;47.966;10.268;2022-11-04T00:25:46;8.60;99.90
6788;DHT22;3431;47.966;10.268;2022-11-04T00:26:26;8.60;99.90
6788;DHT22;3431;47.966;10.268;2022-11-04T00:27:07;8.50;99.90
6788;DHT22;3431;47.966;10.268;2022-11-04T00:27:47;8.50;99.90
6788;DHT22;3431;47.966;10.268;2022-11-04T00:28:27;8.50;99.90
6788;DHT22;3431;47.966;10.268;2022-11-04T00:29:05;8.50;99.90
6788;DHT22;3431;47.966;10.268;2022-11-04T00:29:28;8.50;99.90
6788;DHT22;3431;47.966;10.268;2022-11-04T00:29:50;8.50;99.90
6788;DHT22;3431;47.966;10.268;2022-11-04T00:30:11;8.50;99.90
6788;DHT22;3431;47.966;10.268;2022-11-04T00:30:34;8.50;99.90
6788;DHT22;3431;47.966;10.268;2022-11-04T00:30:57;8.50;99.90
6788;DHT22;3431;47.966;10.268;2022-11-04T00:31:38;8.50;99.90
6788;DHT22;3431;47.966;10.268;2022-11-04T00:32:19;8.50;99.90
6788;DHT22;3431;47.966;10.268;2022-11-04T00:32:59;8.50;99.90
6788;DHT22;3431;47.966;10.268;2022-11-04T00:33:39;8.50;99.90
6788;DHT22;3431;47.966;10.268;2022-11-04T00:34:01;8.50;99.90
6788;DHT22;3431;47.966;10.268;2022-11-04T00:34:22;8.40;99.90
6788;DHT22;3431;47.966;10.268;2022-11-04T00:34:45;8.40;99.90
6788;DHT22;3431;47.966;10.268;2022-11-04T00:35:07;8.50;99.90
6788;DHT22;3431;47.966;10.268;2022-11-04T00:35:29;8.50;99.90
6788;DHT22;3431;47.966;10.268;2022-11-04T00:35:53;8.40;99.90
6788;DHT22;3431;47.966;10.268;2022-11-04T00:36:16;8.40;99.90
6788;DHT22;3431;47.966;10.268;2022-11-04T00:36:37;8.40;99.90
6788;DHT22;3431;47.966;10.268;2022-11-04T00:36:59;8.40;99.90
6788;DHT22;3431;47.966;10.268;2022-11-04T00:37:23;8.40;99.90
6788;DHT22;3431;47.966;10.268;2022-11-04T00:37:45;8.30;99.90
6788;DHT22;3431;47.966;10.268;2022-11-04T00:38:07;8.30;99.90
6788;DHT22;3431;47.966;10.268;2022-11-04T00:38:28;8.30;99.90
6788;DHT22;3431;47.966;10.268;2022-11-04T00:38:52;8.30;99.90
6788;DHT22;3431;47.966;10.268;2022-11-04T00:39:13;8.30;99.90
6788;DHT22;3431;47.966;10.268;2022-11-04T00:39:35;8.40;99.90
6788;DHT22;3431;47.966;10.268;2022-11-04T00:39:56;8.30;99.90
6788;DHT22;3431;47.966;10.268;2022-11-04T00:40:18;8.30;99.90
6788;DHT22;3431;47.966;10.268;2022-11-04T00:40:41;8.30;99.90
6788;DHT22;3431;47.966;10.268;2022-11-04T00:41:02;8.30;99.90
6788;DHT22;3431;47.966;10.268;2022-11-04T00:41:44;8.30;99.90
6788;DHT22;3431;47.966;10.268;2022-11-04T00:42:05;8.40;99.90
6788;DHT22;3431;47.966;10.268;2022-11-04T00:42:28;8.30;99.90
6788;DHT22;3431;47.966;10.268;2022-11-04T00:42:49;8.30;99.90
6788;DHT22;3431;47.966;10.268;2022-11-04T00:43:11;8.30;99.90
6788;DHT22;3431;47.966;10.268;2022-11-04T00:43:33;8.30;99.90
6788;DHT22;3431;47.966;10.268;2022-11-04T00:43:57;8.40;99.90
6788;DHT22;3431;47.966;10.268;2022-11-04T00:44:19;8.30;99.90
6788;DHT22;3431;47.966;10.268;2022-11-04T00:44:42;8.30;99.90
6788;DHT22;3431;47.966;10.268;2022-11-04T00:45:04;8.30;99.90
6788;DHT22;3431;47.966;10.268;2022-11-04T00:45:27;8.40;99.90
6788;DHT22;3431;47.966;10.268;2022-11-04T00:45:48;8.30;99.90
6788;DHT22;3431;47.966;10.268;2022-11-04T00:46:10;8.30;99.90
6788;DHT22;3431;47.966;10.268;2022-11-04T00:46:32;8.30;99.90
6788;DHT22;3431;47.966;10.268;2022-11-04T00:46:54;8.30;99.90
6788;DHT22;3431;47.966;10.268;2022-11-04T00:47:16;8.30;99.90
6788;DHT22;3431;47.966;10.268;2022-11-04T00:47:38;8.30;99.90
6788;DHT22;3431;47.966;10.268;2022-11-04T00:48:00;8.30;99.90
6788;DHT22;3431;47.966;10.268;2022-11-04T00:48:21;8.30;99.90
6788;DHT22;3431;47.966;10.268;2022-11-04T00:48:44;8.30;99.90
6788;DHT22;3431;47.966;10.268;2022-11-04T00:49:05;8.30;99.90
6788;DHT22;3431;47.966;10.268;2022-11-04T00:49:27;8.30;99.90
6788;DHT22;3431;47.966;10.268;2022-11-04T00:49:48;8.30;99.90
6788;DHT22;3431;47.966;10.268;2022-11-04T00:50:10;9.60;99.90
6788;DHT22;3431;47.966;10.268;2022-11-04T00:50:33;8.30;99.90
6788;DHT22;3431;47.966;10.268;2022-11-04T00:50:54;8.30;99.90
6788;DHT22;3431;47.966;10.268;2022-11-04T00:51:16;8.30;99.90
6788;DHT22;3431;47.966;10.268;2022-11-04T00:51:37;8.30;99.90
6788;DHT22;3431;47.966;10.268;2022-11-04T00:52:00;8.30;99.90
6788;DHT22;3431;47.966;10.268;2022-11-04T00:52:22;8.30;99.90
6788;DHT22;3431;47.966;10.268;2022-11-04T00:52:43;8.30;99.90
6788;DHT22;3431;47.966;10.268;2022-11-04T00:53:05;8.30;99.90
6788;DHT22;3431;47.966;10.268;2022-11-04T00:53:27;8.30;99.90
6788;DHT22;3431;47.966;10.268;2022-11-04T00:53:49;8.30;99.90
6788;DHT22;3431;47.966;10.268;2022-11-04T00:54:11;8.20;99.90
6788;DHT22;3431;47.966;10.268;2022-11-04T00:54:32;8.20;99.90
6788;DHT22;3431;47.966;10.268;2022-11-04T00:54:54;8.20;99.90
6788;DHT22;3431;47.966;10.268;2022-11-04T00:55:16;8.20;99.90
6788;DHT22;3431;47.966;10.268;2022-11-04T00:55:38;8.20;99.90
6788;DHT22;3431;47.966;10.268;2022-11-04T00:55:59;8.20;99.90
6788;DHT22;3431;47.966;10.268;2022-11-04T00:56:21;8.20;99.90
6788;DHT22;3431;47.966;10.268;2022-11-04T00:56:43;8.20;99.90
6788;DHT22;3431;47.966;10.268;2022-11-04T00:57:08;8.20;99.90
6788;DHT22;3431;47.966;10.268;2022-11-04T00:57:29;8.20;99.90
6788;DHT22;3431;47.966;10.268;2022-11-04T00:57:51;8.20;99.90
6788;DHT22;3431;47.966;10.268;2022-11-04T00:58:14;8.20;99.90
6788;DHT22;3431;47.966;10.268;2022-11-04T00:58:36;8.20;99.90
6788;DHT22;3431;47.966;10.268;2022-11-04T00:58:58;8.20;99.90
6788;DHT22;3431;47.966;10.268;2022-11-04T00:59:19;8.20;99.90
6788;DHT22;3431;47.966;10.268;2022-11-04T00:59:43;8.20;99.90
6788;DHT22;3431;47.966;10.268;2022-11-04T01:00:07;8.20;99.90
6788;DHT22;3431;47.966;10.268;2022-11-04T01:00:28;8.20;99.90
6788;DHT22;3431;47.966;10.268;2022-11-04T01:00:50;8.20;99.90
6788;DHT22;3431;47.966;10.268;2022-11-04T01:01:14;8.20;99.90
6788;DHT22;3431;47.966;10.268;2022-11-04T01:01:38;8.20;99.90
6788;DHT22;3431;47.966;10.268;2022-11-04T01:01:59;8.20;99.90
6788;DHT22;3431;47.966;10.268;2022-11-04T01:02:21;8.20;99.90
6788;DHT22;3431;47.966;10.268;2022-11-04T01:02:43;8.20;99.90
6788;DHT22;3431;47.966;10.268;2022-11-04T01:03:05;8.20;99.90
6788;DHT22;3431;47.966;10.268;2022-11-04T01:03:26;8.20;99.90
6788;DHT22;3431;47.966;10.268;2022-11-04T01:03:49;8.20;99.90
6788;DHT22;3431;47.966;10.268;2022-11-04T01:04:12;8.20;99.90
6788;DHT22;3431;47.966;10.268;2022-11-04T01:04:34;8.20;99.90
6788;DHT22;3431;47.966;10.268;2022-11-04T01:04:56;8.20;99.90
6788;DHT22;3431;47.966;10.268;2022-11-04T01:05:18;8.20;99.90
6788;DHT22;3431;47.966;10.268;2022-11-04T01:05:40;8.20;99.90
6788;DHT22;3431;47.966;10.268;2022-11-04T01:06:02;8.20;99.90
6788;DHT22;3431;47.966;10.268;2022-11-04T01:06:25;8.20;99.90
6788;DHT22;3431;47.966;10.268;2022-11-04T01:06:47;8.20;99.90
6788;DHT22;3431;47.966;10.268;2022-11-04T01:07:09;8.20;99.90
6788;DHT22;3431;47.966;10.268;2022-11-04T01:07:31;8.20;99.90
6788;DHT22;3431;47.966;10.268;2022-11-04T01:07:52;8.30;99.90
6788;DHT22;3431;47.966;10.268;2022-11-04T01:08:14;8.10;99.90
6788;DHT22;3431;47.966;10.268;2022-11-04T01:08:37;8.20;99.90
6788;DHT22;3431;47.966;10.268;2022-11-04T01:09:00;8.20;99.90
6788;DHT22;3431;47.966;10.268;2022-11-04T01:09:22;8.20;99.90
6788;DHT22;3431;47.966;10.268;2022-11-04T01:09:43;8.20;99.90
6788;DHT22;3431;47.966;10.268;2022-11-04T01:10:07;8.20;99.90
6788;DHT22;3431;47.966;10.268;2022-11-04T01:10:29;8.20;99.90
6788;DHT22;3431;47.966;10.268;2022-11-04T01:10:50;8.30;99.90
6788;DHT22;3431;47.966;10.268;2022-11-04T01:11:12;8.20;99.90
6788;DHT22;3431;47.966;10.268;2022-11-04T01:11:35;8.30;99.90
6788;DHT22;3431;47.966;10.268;2022-11-04T01:11:57;8.30;99.90
6788;DHT22;3431;47.966;10.268;2022-11-04T01:12:18;8.30;99.90
6788;DHT22;3431;47.966;10.268;2022-11-04T01:12:40;8.30;99.90
6788;DHT22;3431;47.966;10.268;2022-11-04T01:13:02;8.30;99.90
6788;DHT22;3431;47.966;10.268;2022-11-04T01:13:24;8.30;99.90
6788;DHT22;3431;47.966;10.268;2022-11-04T01:13:49;8.30;99.90
6788;DHT22;3431;47.966;10.268;2022-11-04T01:14:11;8.30;99.90
6788;DHT22;3431;47.966;10.268;2022-11-04T01:14:33;8.30;99.90
6788;DHT22;3431;47.966;10.268;2022-11-04T01:14:56;8.30;99.90
6788;DHT22;3431;47.966;10.268;2022-11-04T01:15:18;8.30;99.90
6788;DHT22;3431;47.966;10.268;2022-11-04T01:15:39;8.20;99.90
6788;DHT22;3431;47.966;10.268;2022-11-04T01:16:04;8.20;99.90
6788;DHT22;3431;47.966;10.268;2022-11-04T01:16:27;8.30;99.90
6788;DHT22;3431;47.966;10.268;2022-11-04T01:16:49;8.20;99.90
6788;DHT22;3431;47.966;10.268;2022-11-04T01:17:10;8.20;99.90
6788;DHT22;3431;47.966;10.268;2022-11-04T01:17:33;8.20;99.90
6788;DHT22;3431;47.966;10.268;2022-11-04T01:17:54;8.20;99.90
6788;DHT22;3431;47.966;10.268;2022-11-04T01:18:16;8.20;99.90
6788;DHT22;3431;47.966;10.268;2022-11-04T01:18:39;8.20;99.90
6788;DHT22;3431;47.966;10.268;2022-11-04T01:19:01;8.20;99.90
6788;DHT22;3431;47.966;10.268;2022-11-04T01:19:23;8.20;99.90
6788;DHT22;3431;47.966;10.268;2022-11-04T01:19:45;8.20;99.90
6788;DHT22;3431;47.966;10.268;2022-11-04T01:20:07;8.20;99.90
6788;DHT22;3431;47.966;10.268;2022-11-04T01:20:29;8.20;99.90
6788;DHT22;3431;47.966;10.268;2022-11-04T01:20:51;8.10;99.90
6788;DHT22;3431;47.966;10.268;2022-11-04T01:21:14;8.20;99.90
6788;DHT22;3431;47.966;10.268;2022-11-04T01:21:36;8.10;99.90
6788;DHT22;3431;47.966;10.268;2022-11-04T01:21:57;8.20;99.90
6788;DHT22;3431;47.966;10.268;2022-11-04T01:22:20;8.20;99.90
6788;DHT22;3431;47.966;10.268;2022-11-04T01:22:41;8.10;99.90
6788;DHT22;3431;47.966;10.268;2022-11-04T01:23:03;8.10;99.90
6788;DHT22;3431;47.966;10.268;2022-11-04T01:23:25;8.10;99.90
6788;DHT22;3431;47.966;10.268;2022-11-04T01:23:47;8.10;99.90
6788;DHT22;3431;47.966;10.268;2022-11-04T01:24:09;8.10;99.90
6788;DHT22;3431;47.966;10.268;2022-11-04T01:24:30;8.10;99.90
6788;DHT22;3431;47.966;10.268;2022-11-04T01:24:52;8.10;99.90
6788;DHT22;3431;47.966;10.268;2022-11-04T01:25:14;8.10;99.90
6788;DHT22;3431;47.966;10.268;2022-11-04T01:25:38;8.10;99.90
6788;DHT22;3431;47.966;10.268;2022-11-04T01:26:00;8.10;99.90
6788;DHT22;3431;47.966;10.268;2022-11-04T01:26:23;8.10;99.90
6788;DHT22;3431;47.966;10.268;2022-11-04T01:26:46;8.10;99.90
6788;DHT22;3431;47.966;10.268;2022-11-04T01:27:08;8.10;99.90
6788;DHT22;3431;47.966;10.268;2022-11-04T01:27:29;8.10;99.90
6788;DHT22;3431;47.966;10.268;2022-11-04T01:27:51;8.10;99.90
6788;DHT22;3431;47.966;10.268;2022-11-04T01:28:13;8.10;99.90
6788;DHT22;3431;47.966;10.268;2022-11-04T01:28:35;8.10;99.90
6788;DHT22;3431;47.966;10.268;2022-11-04T01:28:57;8.10;99.90
6788;DHT22;3431;47.966;10.268;2022-11-04T01:29:20;8.10;99.90
6788;DHT22;3431;47.966;10.268;2022-11-04T01:29:41;8.00;99.90
6788;DHT22;3431;47.966;10.268;2022-11-04T01:30:07;8.10;99.90
6788;DHT22;3431;47.966;10.268;2022-11-04T01:30:29;8.10;99.90
6788;DHT22;3431;47.966;10.268;2022-11-04T01:30:51;8.10;99.90
6788;DHT22;3431;47.966;10.268;2022-11-04T01:31:14;8.10;99.90
6788;DHT22;3431;47.966;10.268;2022-11-04T01:31:36;8.10;99.90
6788;DHT22;3431;47.966;10.268;2022-11-04T01:31:59;8.10;99.90
6788;DHT22;3431;47.966;10.268;2022-11-04T01:32:20;8.10;99.90
6788;DHT22;3431;47.966;10.268;2022-11-04T01:32:42;8.10;99.90
6788;DHT22;3431;47.966;10.268;2022-11-04T01:33:04;8.10;99.90
6788;DHT22;3431;47.966;10.268;2022-11-04T01:33:26;8.10;99.90
6788;DHT22;3431;47.966;10.268;2022-11-04T01:33:48;8.10;99.90
6788;DHT22;3431;47.966;10.268;2022-11-04T01:34:10;8.10;99.90
6788;DHT22;3431;47.966;10.268;2022-11-04T01:34:33;8.10;99.90
6788;DHT22;3431;47.966;10.268;2022-11-04T01:34:54;8.10;99.90
6788;DHT22;3431;47.966;10.268;2022-11-04T01:35:16;8.10;99.90
6788;DHT22;3431;47.966;10.268;2022-11-04T01:35:38;8.10;99.90
6788;DHT22;3431;47.966;10.268;2022-11-04T01:36:00;8.10;99.90
6788;DHT22;3431;47.966;10.268;2022-11-04T01:36:23;8.10;99.90
6788;DHT22;3431;47.966;10.268;2022-11-04T01:36:45;8.10;99.90
6788;DHT22;3431;47.966;10.268;2022-11-04T01:37:06;8.00;99.90
6788;DHT22;3431;47.966;10.268;2022-11-04T01:37:29;8.00;99.90
6788;DHT22;3431;47.966;10.268;2022-11-04T01:37:50;8.00;99.90
6788;DHT22;3431;47.966;10.268;2022-11-04T01:38:12;8.00;99.90
6788;DHT22;3431;47.966;10.268;2022-11-04T01:38:34;8.00;99.90
6788;DHT22;3431;47.966;10.268;2022-11-04T01:38:56;8.00;99.90
6788;DHT22;3431;47.966;10.268;2022-11-04T01:39:18;8.00;99.90
6788;DHT22;3431;47.966;10.268;2022-11-04T01:39:39;7.90;99.90
6788;DHT22;3431;47.966;10.268;2022-11-04T01:40:01;8.00;99.90
6788;DHT22;3431;47.966;10.268;2022-11-04T01:40:24;8.00;99.90
6788;DHT22;3431;47.966;10.268;2022-11-04T01:40:45;8.00;99.90
6788;DHT22;3431;47.966;10.268;2022-11-04T01:41:08;8.00;99.90
6788;DHT22;3431;47.966;10.268;2022-11-04T01:41:31;8.00;99.90
6788;DHT22;3431;47.966;10.268;2022-11-04T01:41:54;7.90;99.90
6788;DHT22;3431;47.966;10.268;2022-11-04T01:42:20;7.90;99.90
6788;DHT22;3431;47.966;10.268;2022-11-04T01:42:41;7.90;99.90
6788;DHT22;3431;47.966;10.268;2022-11-04T01:43:03;8.00;99.90
6788;DHT22;3431;47.966;10.268;2022-11-04T01:43:42;8.00;99.90
6788;DHT22;3431;47.966;10.268;2022-11-04T01:44:59;7.90;99.90
6788;DHT22;3431;47.966;10.268;2022-11-04T01:45:23;7.90;99.90
6788;DHT22;3431;47.966;10.268;2022-11-04T01:45:47;7.90;99.90
6788;DHT22;3431;47.966;10.268;2022-11-04T01:46:24;8.00;99.90
6788;DHT22;3431;47.966;10.268;2022-11-04T01:46:49;7.90;99.90
6788;DHT22;3431;47.966;10.268;2022-11-04T01:47:15;7.90;99.90
6788;DHT22;3431;47.966;10.268;2022-11-04T01:47:40;7.90;99.90
6788;DHT22;3431;47.966;10.268;2022-11-04T01:48:05;7.90;99.90
6788;DHT22;3431;47.966;10.268;2022-11-04T01:48:30;7.90;99.90
6788;DHT22;3431;47.966;10.268;2022-11-04T01:48:57;7.90;99.90
6788;DHT22;3431;47.966;10.268;2022-11-04T01:49:24;7.90;99.90
6788;DHT22;3431;47.966;10.268;2022-11-04T01:49:49;7.90;99.90
6788;DHT22;3431;47.966;10.268;2022-11-04T01:50:14;7.90;99.90
6788;DHT22;3431;47.966;10.268;2022-11-04T01:50:38;7.90;99.90
6788;DHT22;3431;47.966;10.268;2022-11-04T01:51:00;7.90;99.90
6788;DHT22;3431;47.966;10.268;2022-11-04T01:51:21;7.90;99.90
6788;DHT22;3431;47.966;10.268;2022-11-04T01:51:44;7.90;99.90
6788;DHT22;3431;47.966;10.268;2022-11-04T01:52:10;7.90;99.90
6788;DHT22;3431;47.966;10.268;2022-11-04T01:52:37;7.90;99.90
6788;DHT22;3431;47.966;10.268;2022-11-04T01:53:05;7.90;99.90
6788;DHT22;3431;47.966;10.268;2022-11-04T01:53:31;7.90;99.90
6788;DHT22;3431;47.966;10.268;2022-11-04T01:53:54;7.90;99.90
6788;DHT22;3431;47.966;10.268;2022-11-04T01:54:17;7.90;99.90
6788;DHT22;3431;47.966;10.268;2022-11-04T01:54:39;7.90;99.90
6788;DHT22;3431;47.966;10.268;2022-11-04T01:55:06;7.80;99.90
6788;DHT22;3431;47.966;10.268;2022-11-04T01:55:32;7.90;99.90
6788;DHT22;3431;47.966;10.268;2022-11-04T01:55:56;7.80;99.90
6788;DHT22;3431;47.966;10.268;2022-11-04T01:56:18;7.80;99.90
6788;DHT22;3431;47.966;10.268;2022-11-04T01:56:41;7.90;99.90
6788;DHT22;3431;47.966;10.268;2022-11-04T01:57:08;7.90;99.90
6788;DHT22;3431;47.966;10.268;2022-11-04T01:57:34;7.90;99.90
6788;DHT22;3431;47.966;10.268;2022-11-04T01:58:02;7.90;99.90
6788;DHT22;3431;47.966;10.268;2022-11-04T01:58:26;7.90;99.90
6788;DHT22;3431;47.966;10.268;2022-11-04T01:58:52;7.80;99.90
6788;DHT22;3431;47.966;10.268;2022-11-04T01:59:18;7.80;99.90
6788;DHT22;3431;47.966;10.268;2022-11-04T01:59:41;7.80;99.90
6788;DHT22;3431;47.966;10.268;2022-11-04T02:00:06;7.80;99.90
6788;DHT22;3431;47.966;10.268;2022-11-04T02:00:38;7.90;99.90
6788;DHT22;3431;47.966;10.268;2022-11-04T02:01:00;7.80;99.90
6788;DHT22;3431;47.966;10.268;2022-11-04T02:01:22;7.80;99.90
6788;DHT22;3431;47.966;10.268;2022-11-04T02:01:44;7.80;99.90
6788;DHT22;3431;47.966;10.268;2022-11-04T02:02:07;7.80;99.90
6788;DHT22;3431;47.966;10.268;2022-11-04T02:02:29;7.80;99.90
6788;DHT22;3431;47.966;10.268;2022-11-04T02:02:55;7.80;99.90
6788;DHT22;3431;47.966;10.268;2022-11-04T02:03:20;7.80;99.90
6788;DHT22;3431;47.966;10.268;2022-11-04T02:03:49;7.80;99.90
6788;DHT22;3431;47.966;10.268;2022-11-04T02:04:12;7.80;99.90
6788;DHT22;3431;47.966;10.268;2022-11-04T02:04:46;7.80;99.90
6788;DHT22;3431;47.966;10.268;2022-11-04T02:05:08;7.80;99.90
6788;DHT22;3431;47.966;10.268;2022-11-04T02:05:31;7.80;99.90
6788;DHT22;3431;47.966;10.268;2022-11-04T02:05:53;7.80;99.90
6788;DHT22;3431;47.966;10.268;2022-11-04T02:06:15;7.80;99.90
6788;DHT22;3431;47.966;10.268;2022-11-04T02:06:39;7.80;99.90
6788;DHT22;3431;47.966;10.268;2022-11-04T02:07:03;7.80;99.90
6788;DHT22;3431;47.966;10.268;2022-11-04T02:07:27;7.80;99.90
6788;DHT22;3431;47.966;10.268;2022-11-04T02:07:52;7.80;99.90
6788;DHT22;3431;47.966;10.268;2022-11-04T02:08:15;7.80;99.90
6788;DHT22;3431;47.966;10.268;2022-11-04T02:08:37;7.80;99.90
6788;DHT22;3431;47.966;10.268;2022-11-04T02:08:59;7.80;99.90
6788;DHT22;3431;47.966;10.268;2022-11-04T02:09:24;7.80;99.90
6788;DHT22;3431;47.966;10.268;2022-11-04T02:09:47;7.80;99.90
6788;DHT22;3431;47.966;10.268;2022-11-04T02:10:09;7.80;99.90
6788;DHT22;3431;47.966;10.268;2022-11-04T02:10:31;7.80;99.90
6788;DHT22;3431;47.966;10.268;2022-11-04T02:10:58;7.80;99.90
6788;DHT22;3431;47.966;10.268;2022-11-04T02:11:20;7.80;99.90
6788;DHT22;3431;47.966;10.268;2022-11-04T02:11:56;7.80;99.90
6788;DHT22;3431;47.966;10.268;2022-11-04T02:12:48;7.80;99.90
6788;DHT22;3431;47.966;10.268;2022-11-04T02:13:10;7.80;99.90
6788;DHT22;3431;47.966;10.268;2022-11-04T02:13:32;7.80;99.90
6788;DHT22;3431;47.966;10.268;2022-11-04T02:13:55;7.90;99.90
6788;DHT22;3431;47.966;10.268;2022-11-04T02:14:17;7.80;99.90
6788;DHT22;3431;47.966;10.268;2022-11-04T02:14:39;7.80;99.90
6788;DHT22;3431;47.966;10.268;2022-11-04T02:15:03;7.80;99.90
6788;DHT22;3431;47.966;10.268;2022-11-04T02:15:31;7.80;99.90
6788;DHT22;3431;47.966;10.268;2022-11-04T02:16:05;7.90;99.90
6788;DHT22;3431;47.966;10.268;2022-11-04T02:16:37;7.80;99.90
6788;DHT22;3431;47.966;10.268;2022-11-04T02:17:05;7.90;99.90
6788;DHT22;3431;47.966;10.268;2022-11-04T02:17:38;7.80;99.90
6788;DHT22;3431;47.966;10.268;2022-11-04T02:18:12;7.80;99.90
6788;DHT22;3431;47.966;10.268;2022-11-04T02:18:48;7.80;99.90
6788;DHT22;3431;47.966;10.268;2022-11-04T02:19:30;7.90;99.90
6788;DHT22;3431;47.966;10.268;2022-11-04T02:20:04;7.90;99.90
6788;DHT22;3431;47.966;10.268;2022-11-04T02:20:58;7.80;99.90
6788;DHT22;3431;47.966;10.268;2022-11-04T02:21:51;7.80;99.90
6788;DHT22;3431;47.966;10.268;2022-11-04T02:22:42;7.70;99.90
6788;DHT22;3431;47.966;10.268;2022-11-04T02:23:37;7.80;99.90
6788;DHT22;3431;47.966;10.268;2022-11-04T02:24:32;7.80;99.90
6788;DHT22;3431;47.966;10.268;2022-11-04T02:25:21;7.80;99.90
6788;DHT22;3431;47.966;10.268;2022-11-04T02:26:22;7.80;99.90
6788;DHT22;3431;47.966;10.268;2022-11-04T02:27:06;7.80;99.90
6788;DHT22;3431;47.966;10.268;2022-11-04T02:27:39;7.80;99.90
6788;DHT22;3431;47.966;10.268;2022-11-04T02:28:25;7.80;99.90
6788;DHT22;3431;47.966;10.268;2022-11-04T02:30:08;7.80;99.90
6788;DHT22;3431;47.966;10.268;2022-11-04T02:30:33;7.80;99.90
6788;DHT22;3431;47.966;10.268;2022-11-04T02:31:02;7.80;99.90
6788;DHT22;3431;47.966;10.268;2022-11-04T02:31:31;7.80;99.90
6788;DHT22;3431;47.966;10.268;2022-11-04T02:32:02;7.80;99.90
6788;DHT22;3431;47.966;10.268;2022-11-04T02:32:33;7.80;99.90
6788;DHT22;3431;47.966;10.268;2022-11-04T02:33:05;7.80;99.90
6788;DHT22;3431;47.966;10.268;2022-11-04T02:33:34;7.80;99.90
6788;DHT22;3431;47.966;10.268;2022-11-04T02:34:02;7.80;99.90
6788;DHT22;3431;47.966;10.268;2022-11-04T02:34:32;7.80;99.90
6788;DHT22;3431;47.966;10.268;2022-11-04T02:35:01;7.80;99.90
6788;DHT22;3431;47.966;10.268;2022-11-04T02:35:29;7.80;99.90
6788;DHT22;3431;47.966;10.268;2022-11-04T02:36:00;7.80;99.90
6788;DHT22;3431;47.966;10.268;2022-11-04T02:36:31;7.80;99.90
6788;DHT22;3431;47.966;10.268;2022-11-04T02:36:57;7.80;99.90
6788;DHT22;3431;47.966;10.268;2022-11-04T02:37:30;7.70;99.90
6788;DHT22;3431;47.966;10.268;2022-11-04T02:37:59;7.70;99.90
6788;DHT22;3431;47.966;10.268;2022-11-04T02:38:30;7.70;99.90
6788;DHT22;3431;47.966;10.268;2022-11-04T02:38:55;7.80;99.90
6788;DHT22;3431;47.966;10.268;2022-11-04T02:39:29;7.70;99.90
6788;DHT22;3431;47.966;10.268;2022-11-04T02:39:59;7.70;99.90
6788;DHT22;3431;47.966;10.268;2022-11-04T02:40:32;7.70;99.90
6788;DHT22;3431;47.966;10.268;2022-11-04T02:41:02;7.70;99.90
6788;DHT22;3431;47.966;10.268;2022-11-04T02:41:33;7.80;99.90
6788;DHT22;3431;47.966;10.268;2022-11-04T02:42:02;7.80;99.90
6788;DHT22;3431;47.966;10.268;2022-11-04T02:42:28;7.80;99.90
6788;DHT22;3431;47.966;10.268;2022-11-04T02:42:55;7.80;99.90
6788;DHT22;3431;47.966;10.268;2022-11-04T02:43:23;7.70;99.90
6788;DHT22;3431;47.966;10.268;2022-11-04T02:43:52;7.70;99.90
6788;DHT22;3431;47.966;10.268;2022-11-04T02:44:22;7.80;99.90
6788;DHT22;3431;47.966;10.268;2022-11-04T02:44:53;7.80;99.90
6788;DHT22;3431;47.966;10.268;2022-11-04T02:45:21;7.80;99.90
6788;DHT22;3431;47.966;10.268;2022-11-04T02:45:47;7.80;99.90
6788;DHT22;3431;47.966;10.268;2022-11-04T02:46:15;7.80;99.90
6788;DHT22;3431;47.966;10.268;2022-11-04T02:46:46;7.80;99.90
6788;DHT22;3431;47.966;10.268;2022-11-04T02:47:13;7.80;99.90
6788;DHT22;3431;47.966;10.268;2022-11-04T02:47:37;7.70;99.90
6788;DHT22;3431;47.966;10.268;2022-11-04T02:48:03;7.70;99.90
6788;DHT22;3431;47.966;10.268;2022-11-04T02:48:32;7.80;99.90
6788;DHT22;3431;47.966;10.268;2022-11-04T02:48:59;7.80;99.90
6788;DHT22;3431;47.966;10.268;2022-11-04T02:49:26;7.70;99.90
6788;DHT22;3431;47.966;10.268;2022-11-04T02:49:52;7.70;99.90
6788;DHT22;3431;47.966;10.268;2022-11-04T02:50:22;7.70;99.90